Aérodrome :
LOGIN :

S'inscrire | Disclaimer

   EN    FR    IT 

 










Légende :    VFR   VFR Marginal   IFR   IFR Intensif   IFR Très Intensif
Visi : 
Plafond : 
>= 8 km
>= 3000ft
5 à 8 km
1000 à 3000 ft
1500m à 5 km
500 à 1000 ft
800 à 1500m
200 à 500 ft
< 800m
< 200 ft
Symboles :   Orages  Brouillard  Fortes neiges  Fortes précipitations  Vent > 20 kt
SIGMETs :   Divers  Orages  Givrage  Turbulence  Onde Orograph.  Cendres Volcan.







- Altitude de l'aérodrome : 1548 ft


LKNA - Náměšť Air Base

DERNIER METAR :
  • 221500Z 09003KT 010V130 CAVOK 21/09 Q1018 NOSIG

METARs EXPIRÉS :
  • 221400Z VRB04KT 9999 FEW048 SCT050 21/09 Q1018 NOSIG RMK BLU BLU
  • 221300Z 06006KT 010V110 9999 FEW044 SCT047 21/09 Q1019 NOSIG RMK BLU BLU

TAF COR TAF LKNA
Valide du 22 à 12h jusqu'au 23 à 12h UTC


221100Z 2212/2312 35008KT CAVOK
BECMG 2216/2218 VRB02KT
BECMG 2310/2312 31008KT
Pas de NOTAMs connus pour ce terrain.



MET'MAP, la Météo Aéronautique d'un coup d'oeil ! - Copyright ORBIFLY Décembre 2007 - Disclaimer

ORBIFLY MET'MAP TEAM :

Programmation & Développement : Alexandra Zaïnal
Conception & Développement : Baudouin d'Aumeries
Co-Programmation & Développement : Marc-Olivier Méhu
Soutien technique & logistique : Manuel Goepfert

Contact : metmap@orbifly.com




SOURCES & CREDITS :

   NOAA